Time;durP1;ratioP1;P1;durP2;ratioP2;P2;SDS_P1;SDS_P2;PMS_P1;PMS_P2;Temp;Humidity;BMP_temperature;BMP_pressure;BME280_temperature;BME280_humidity;BME280_pressure;Samples;Min_cycle;Max_cycle;Signal;HPM_P1;HPM_P2
2023/07/25 00:00:49;;;;;;;9.98;5.55;;;;;;;25.38;71.29;99367.16;5550221;32;33389;-61
2023/07/25 00:03:52;;;;;;;13.52;6.10;;;;;;;25.47;65.91;99368.13;5550194;32;34199;-61
2023/07/25 00:06:55;;;;;;;13.75;5.80;;;;;;;25.34;68.30;99374.25;5550089;32;34062;-62
2023/07/25 00:09:58;;;;;;;11.52;5.72;;;;;;;25.21;68.97;99358.66;5536446;32;34082;-61
2023/07/25 00:13:01;;;;;;;12.48;6.20;;;;;;;25.10;69.80;99333.53;5550122;32;32570;-61
2023/07/25 00:16:04;;;;;;;12.13;5.45;;;;;;;25.02;71.48;99315.19;5536418;32;34073;-61
2023/07/25 00:19:06;;;;;;;12.40;5.50;;;;;;;25.03;65.49;99281.50;5550076;32;34264;-61
2023/07/25 00:22:10;;;;;;;10.88;5.78;;;;;;;25.07;67.18;99269.81;5549271;32;34109;-61
2023/07/25 00:25:13;;;;;;;14.13;5.60;;;;;;;24.99;67.39;99256.03;5549855;32;34849;-61
2023/07/25 00:28:22;;;;;;;11.82;5.35;;;;;;;25.00;67.88;99265.81;5550062;32;35060;-61
2023/07/25 00:31:25;;;;;;;12.45;5.28;;;;;;;24.96;67.96;99275.63;5536487;32;34719;-61
2023/07/25 00:34:28;;;;;;;10.85;5.37;;;;;;;24.90;66.19;99276.78;5549739;32;34079;-62
2023/07/25 00:37:31;;;;;;;13.82;5.75;;;;;;;25.03;64.73;99282.31;5549616;32;35841;-61
2023/07/25 00:40:38;;;;;;;8.85;5.22;;;;;;;25.12;64.32;99285.22;5549588;32;34021;-61
2023/07/25 00:43:41;;;;;;;9.68;5.28;;;;;;;25.06;63.67;99291.78;5549690;32;34186;-61
2023/07/25 00:46:44;;;;;;;9.10;5.30;;;;;;;25.02;64.65;99293.47;5549952;32;33213;-61
2023/07/25 00:49:48;;;;;;;11.07;5.05;;;;;;;25.05;64.16;99307.25;5549530;32;34200;-61
2023/07/25 00:52:54;;;;;;;10.60;5.25;;;;;;;25.01;64.25;99337.97;5536044;32;34264;-61
2023/07/25 00:55:57;;;;;;;10.40;5.10;;;;;;;24.98;65.31;99347.50;5549373;32;35579;-61
2023/07/25 00:59:01;;;;;;;8.48;4.93;;;;;;;24.93;67.41;99336.69;5535772;32;33969;-61
2023/07/25 01:02:04;;;;;;;10.68;5.60;;;;;;;24.83;67.32;99347.63;5549393;32;34079;-62
2023/07/25 01:05:07;;;;;;;10.68;5.30;;;;;;;24.85;65.96;99364.41;5549222;32;34208;-62
2023/07/25 01:08:10;;;;;;;12.77;5.55;;;;;;;25.00;64.49;99369.72;5549177;32;34728;-62
2023/07/25 01:11:13;;;;;;;10.65;5.20;;;;;;;25.07;64.12;99382.97;5549046;32;34819;-63
2023/07/25 01:14:16;;;;;;;9.95;5.28;;;;;;;24.93;65.37;99404.50;5549349;32;34037;-63
2023/07/25 01:17:22;;;;;;;11.95;5.10;;;;;;;24.94;66.46;99413.47;5548886;32;34706;-61
2023/07/25 01:20:26;;;;;;;13.25;5.85;;;;;;;24.11;85.07;99430.53;5548850;32;34914;-64
2023/07/25 01:23:29;;;;;;;13.10;6.53;;;;;;;22.77;100.00;99420.59;5535819;32;34110;-63
2023/07/25 01:26:32;;;;;;;13.85;5.78;;;;;;;21.54;100.00;99429.41;5535553;32;34024;-62
2023/07/25 01:29:35;;;;;;;10.20;5.45;;;;;;;21.38;100.00;99430.41;5548866;32;34065;-63
2023/07/25 01:32:37;;;;;;;12.90;5.78;;;;;;;20.91;100.00;99430.34;5548981;32;34885;-65
2023/07/25 01:35:41;;;;;;;13.35;6.35;;;;;;;20.42;100.00;99432.31;5551411;32;34715;-66
2023/07/25 01:38:44;;;;;;;13.88;6.40;;;;;;;20.19;100.00;99405.63;5551464;32;34767;-66
2023/07/25 01:41:47;;;;;;;14.68;5.57;;;;;;;20.10;100.00;99393.69;5551487;32;32639;-65
2023/07/25 01:44:49;;;;;;;12.02;6.03;;;;;;;19.96;100.00;99402.19;5551391;32;34809;-64
2023/07/25 01:47:53;;;;;;;11.88;6.00;;;;;;;19.84;100.00;99396.12;5551321;32;34275;-64
2023/07/25 01:50:56;;;;;;;11.35;5.72;;;;;;;19.79;100.00;99396.06;5551201;32;34177;-65
2023/07/25 01:53:59;;;;;;;10.98;6.07;;;;;;;19.77;100.00;99365.91;5551352;32;35619;-63
2023/07/25 01:57:03;;;;;;;13.85;6.00;;;;;;;19.68;100.00;99305.53;5551285;32;34031;-63
2023/07/25 02:00:06;;;;;;;11.15;5.57;;;;;;;19.58;100.00;99280.38;5551325;32;35468;-62
2023/07/25 02:03:17;;;;;;;12.68;5.40;;;;;;;19.57;100.00;99276.87;5551503;32;34852;-62
2023/07/25 02:06:21;;;;;;;14.40;5.40;;;;;;;19.65;100.00;99268.38;5551453;32;34511;-62
2023/07/25 02:09:23;;;;;;;11.10;5.28;;;;;;;19.69;100.00;99257.91;5551194;32;34863;-62
2023/07/25 02:12:28;;;;;;;11.98;5.45;;;;;;;19.99;100.00;99281.59;5551174;32;34030;-62
2023/07/25 02:15:31;;;;;;;8.80;4.90;;;;;;;20.02;100.00;99275.69;5551076;32;34748;-62
2023/07/25 02:18:34;;;;;;;12.52;5.82;;;;;;;20.13;100.00;99254.00;5551220;32;34112;-62
2023/07/25 02:21:37;;;;;;;11.50;5.68;;;;;;;20.15;100.00;99257.22;5551105;32;34250;-62
2023/07/25 02:24:40;;;;;;;14.32;5.80;;;;;;;20.57;100.00;99269.97;5537585;32;34457;-62
2023/07/25 02:27:45;;;;;;;13.50;5.35;;;;;;;20.68;100.00;99296.72;5550978;32;34165;-62
2023/07/25 02:30:48;;;;;;;13.23;5.30;;;;;;;20.79;100.00;99319.16;5551157;32;34159;-62
2023/07/25 02:33:51;;;;;;;13.88;5.57;;;;;;;20.96;100.00;99314.41;5550993;32;34221;-62
2023/07/25 02:36:54;;;;;;;10.93;5.18;;;;;;;20.98;100.00;99303.38;5550933;32;34084;-62
2023/07/25 02:39:57;;;;;;;13.68;5.70;;;;;;;21.04;100.00;99238.41;5537666;32;34036;-62
2023/07/25 02:43:02;;;;;;;10.80;4.87;;;;;;;21.41;100.00;99097.19;5551040;32;34704;-62
2023/07/25 02:46:05;;;;;;;10.52;4.90;;;;;;;21.54;100.00;99112.84;5550685;32;34108;-62
2023/07/25 02:49:08;;;;;;;11.25;4.95;;;;;;;21.47;100.00;99123.09;5537009;32;34222;-62
2023/07/25 02:52:11;;;;;;;11.48;5.40;;;;;;;21.42;100.00;99120.38;5550995;32;35135;-62
2023/07/25 02:55:14;;;;;;;9.60;5.07;;;;;;;21.31;100.00;99118.75;5537070;32;34018;-61
2023/07/25 02:58:17;;;;;;;8.07;4.85;;;;;;;21.18;100.00;99098.50;5550625;32;34271;-62
2023/07/25 03:01:20;;;;;;;10.98;5.47;;;;;;;21.09;100.00;99092.00;5550702;32;34763;-62
2023/07/25 03:04:23;;;;;;;10.73;5.25;;;;;;;21.03;100.00;99122.72;5550559;32;34921;-61
2023/07/25 03:07:26;;;;;;;12.88;5.10;;;;;;;21.02;100.00;99156.97;5537104;32;34261;-62
2023/07/25 03:10:29;;;;;;;13.02;5.60;;;;;;;20.92;100.00;99173.09;5550884;32;32776;-62
2023/07/25 03:13:32;;;;;;;13.30;5.43;;;;;;;20.83;100.00;99204.34;5550652;32;35515;-62
2023/07/25 03:16:37;;;;;;;11.93;5.07;;;;;;;20.99;100.00;99227.62;5550662;32;34303;-62
2023/07/25 03:19:40;;;;;;;10.80;5.60;;;;;;;21.04;100.00;99241.13;5550630;32;34223;-62
2023/07/25 03:22:43;;;;;;;14.87;5.62;;;;;;;21.02;100.00;99237.84;5536960;32;34200;-62
2023/07/25 03:25:46;;;;;;;13.10;5.53;;;;;;;20.93;100.00;99225.16;5550865;32;32742;-61
2023/07/25 03:28:49;;;;;;;14.02;5.18;;;;;;;20.89;100.00;99224.88;5536835;32;34817;-62
2023/07/25 03:31:52;;;;;;;10.48;5.10;;;;;;;20.83;100.00;99231.31;5550550;32;34810;-62
2023/07/25 03:34:54;;;;;;;10.85;4.95;;;;;;;20.80;100.00;99229.97;5550393;32;32722;-62
2023/07/25 03:37:57;;;;;;;9.85;4.50;;;;;;;20.78;100.00;99253.66;5550420;32;34757;-61
2023/07/25 03:41:00;;;;;;;8.80;4.05;;;;;;;20.82;100.00;99262.03;5550452;32;33714;-62
2023/07/25 03:44:03;;;;;;;10.02;4.20;;;;;;;20.98;100.00;99249.44;5550359;32;34127;-62
2023/07/25 03:47:06;;;;;;;10.68;4.18;;;;;;;21.10;100.00;99253.56;5550639;32;34825;-61
2023/07/25 03:50:09;;;;;;;11.77;4.87;;;;;;;21.22;100.00;99243.38;5536603;32;34193;-61
2023/07/25 03:53:12;;;;;;;7.90;3.70;;;;;;;21.27;100.00;99231.78;5550243;32;35103;-61
2023/07/25 03:56:15;;;;;;;13.27;4.12;;;;;;;21.32;100.00;99210.22;5549501;32;34168;-62
2023/07/25 03:59:18;;;;;;;9.18;3.83;;;;;;;21.32;100.00;99231.00;5536679;32;34272;-62
2023/07/25 04:02:21;;;;;;;8.93;3.90;;;;;;;21.28;100.00;99217.22;5550187;32;34188;-62
2023/07/25 04:05:24;;;;;;;7.82;3.92;;;;;;;21.32;100.00;99222.87;5550583;32;34831;-62
2023/07/25 04:08:27;;;;;;;10.85;4.10;;;;;;;21.35;100.00;99225.88;5536443;32;34181;-62
2023/07/25 04:11:31;;;;;;;11.23;3.83;;;;;;;21.37;100.00;99239.91;5550412;32;34168;-62
2023/07/25 04:14:34;;;;;;;8.45;3.75;;;;;;;21.46;100.00;99224.81;5550083;32;34023;-62
2023/07/25 04:17:37;;;;;;;9.57;3.80;;;;;;;21.50;100.00;99225.91;5550312;32;33540;-62
2023/07/25 04:20:41;;;;;;;9.70;3.40;;;;;;;21.58;100.00;99222.69;5550270;32;34769;-62
2023/07/25 04:23:44;;;;;;;10.82;3.35;;;;;;;21.66;100.00;99215.94;5536517;32;32493;-62
2023/07/25 04:26:48;;;;;;;9.25;3.47;;;;;;;21.77;100.00;99208.69;5549789;32;35048;-62
2023/07/25 04:29:51;;;;;;;8.50;3.40;;;;;;;21.88;100.00;99207.63;5549869;32;32845;-62
2023/07/25 04:32:54;;;;;;;10.70;3.28;;;;;;;21.81;100.00;99204.34;5549868;32;34042;-62
2023/07/25 04:35:57;;;;;;;13.23;3.53;;;;;;;21.76;100.00;99209.75;5549833;32;34700;-61
2023/07/25 04:39:00;;;;;;;9.20;2.92;;;;;;;21.73;100.00;99221.09;5536161;32;34051;-62
2023/07/25 04:42:03;;;;;;;9.45;3.37;;;;;;;21.78;100.00;99215.69;5549574;32;34706;-61
2023/07/25 04:45:06;;;;;;;7.53;3.42;;;;;;;21.74;100.00;99217.28;5549668;32;34030;-62
2023/07/25 04:48:09;;;;;;;14.13;3.83;;;;;;;21.80;100.00;99210.81;5549593;32;34254;-62
2023/07/25 04:51:15;;;;;;;10.70;3.60;;;;;;;21.77;100.00;99223.00;5549698;32;34145;-62
2023/07/25 04:54:19;;;;;;;7.32;3.65;;;;;;;21.86;100.00;99228.66;5536062;32;34176;-61
2023/07/25 04:57:22;;;;;;;10.63;3.70;;;;;;;21.82;100.00;99228.41;5536237;32;34855;-62
2023/07/25 05:00:25;;;;;;;9.90;3.70;;;;;;;22.00;100.00;99235.19;5549196;32;34085;-61
2023/07/25 05:03:32;;;;;;;7.93;3.67;;;;;;;22.17;100.00;99224.13;5549760;32;34039;-62
2023/07/25 05:06:35;;;;;;;11.00;4.53;;;;;;;22.42;100.00;99214.06;5523688;32;34757;-61
2023/07/25 05:09:38;;;;;;;9.80;3.60;;;;;;;22.74;100.00;99227.28;5551755;32;34040;-62
2023/07/25 05:12:41;;;;;;;8.30;3.78;;;;;;;22.95;100.00;99218.00;5538230;32;34089;-62
2023/07/25 05:15:44;;;;;;;10.48;4.00;;;;;;;23.13;100.00;99188.72;5551680;32;34808;-61
2023/07/25 05:18:47;;;;;;;8.45;3.30;;;;;;;23.13;100.00;99194.13;5551527;32;34110;-62
2023/07/25 05:21:50;;;;;;;10.88;3.92;;;;;;;23.13;100.00;99189.53;5551279;32;34095;-62
2023/07/25 05:24:53;;;;;;;9.77;3.80;;;;;;;23.12;100.00;99189.78;5538301;32;34182;-62
2023/07/25 05:27:56;;;;;;;10.90;4.03;;;;;;;23.11;100.00;99191.69;5538000;32;32702;-62
2023/07/25 05:30:59;;;;;;;8.85;4.03;;;;;;;23.19;100.00;99188.38;5551397;32;34214;-62
2023/07/25 05:34:02;;;;;;;8.18;3.22;;;;;;;23.27;100.00;99181.59;5551521;32;34108;-62
2023/07/25 05:37:06;;;;;;;8.95;3.72;;;;;;;23.40;100.00;99199.91;5551593;32;34017;-61
2023/07/25 05:40:08;;;;;;;8.30;3.50;;;;;;;23.46;100.00;99200.72;5551379;32;35653;-62
2023/07/25 05:43:15;;;;;;;7.50;3.60;;;;;;;23.54;100.00;99192.81;5551308;32;34024;-62
2023/07/25 05:46:17;;;;;;;8.10;3.55;;;;;;;23.61;100.00;99196.03;5551440;32;34138;-61
2023/07/25 05:49:20;;;;;;;8.90;3.45;;;;;;;23.74;100.00;99181.03;5537712;32;34170;-62
2023/07/25 05:52:23;;;;;;;8.73;3.30;;;;;;;23.68;100.00;99169.44;5551244;32;34177;-62
2023/07/25 05:55:27;;;;;;;9.90;3.85;;;;;;;23.92;100.00;99184.94;5551830;32;34107;-62
2023/07/25 05:58:30;;;;;;;12.10;4.18;;;;;;;24.03;100.00;99203.53;5551357;32;33384;-62
2023/07/25 06:01:33;;;;;;;9.75;4.10;;;;;;;24.10;100.00;99206.75;5551490;32;34117;-62
2023/07/25 06:04:37;;;;;;;8.95;3.92;;;;;;;23.99;100.00;99218.75;5551246;32;34014;-63
2023/07/25 06:07:40;;;;;;;11.82;4.18;;;;;;;24.16;100.00;99218.31;5551123;32;34050;-62
2023/07/25 06:10:43;;;;;;;9.13;3.85;;;;;;;24.40;100.00;99213.00;5551188;32;34826;-62
2023/07/25 06:13:46;;;;;;;9.98;4.00;;;;;;;24.72;97.20;99206.97;5551182;32;34123;-62
2023/07/25 06:16:49;;;;;;;10.98;3.90;;;;;;;24.85;94.02;99200.84;5551430;32;34802;-62
2023/07/25 06:19:52;;;;;;;10.95;3.72;;;;;;;25.14;90.84;99203.47;5550426;32;34258;-62
2023/07/25 06:22:56;;;;;;;8.30;3.87;;;;;;;25.15;86.24;99203.19;5537488;32;34070;-62
2023/07/25 06:25:58;;;;;;;5.70;3.37;;;;;;;25.08;90.04;99189.16;5550645;32;34136;-62
2023/07/25 06:29:02;;;;;;;7.22;3.78;;;;;;;25.34;82.01;99176.88;5550738;32;34545;-62
2023/07/25 06:32:05;;;;;;;9.65;4.25;;;;;;;25.40;80.35;99175.72;5536919;32;34188;-62
2023/07/25 06:35:08;;;;;;;6.62;3.90;;;;;;;25.46;89.65;99166.34;5550351;32;34098;-62
2023/07/25 06:38:11;;;;;;;7.97;4.00;;;;;;;25.75;77.79;99168.97;5550316;32;34063;-62
2023/07/25 06:41:17;;;;;;;6.57;3.70;;;;;;;25.82;81.66;99161.22;5550730;32;32478;-62
2023/07/25 06:44:20;;;;;;;7.20;3.62;;;;;;;25.86;82.13;99155.97;5550234;32;35029;-62
2023/07/25 06:47:24;;;;;;;8.45;3.60;;;;;;;26.05;73.96;99151.31;5549839;32;34820;-62
2023/07/25 06:50:26;;;;;;;6.87;3.55;;;;;;;26.43;69.86;99146.56;5550447;32;34130;-62
2023/07/25 06:53:29;;;;;;;7.85;3.70;;;;;;;26.41;70.59;99140.63;5550283;32;34138;-62
2023/07/25 06:56:32;;;;;;;8.38;3.50;;;;;;;26.31;66.72;99152.50;5550383;32;34077;-62
2023/07/25 06:59:35;;;;;;;6.30;3.40;;;;;;;26.86;64.83;99143.53;5550408;32;34055;-61
2023/07/25 07:02:38;;;;;;;7.82;3.70;;;;;;;27.13;59.79;99127.97;5550105;32;34087;-62
2023/07/25 07:05:50;;;;;;;9.13;3.60;;;;;;;27.37;61.19;99132.31;5537185;32;32585;-62
2023/07/25 07:08:53;;;;;;;7.50;3.45;;;;;;;27.53;60.98;99120.00;5550576;32;34772;-63
2023/07/25 07:11:56;;;;;;;7.22;3.60;;;;;;;27.46;59.57;99130.47;5550520;32;34094;-62
2023/07/25 07:14:59;;;;;;;8.75;3.97;;;;;;;27.32;59.79;99119.63;5536988;32;32576;-62
2023/07/25 07:18:04;;;;;;;9.52;3.90;;;;;;;27.43;62.36;99098.41;5550443;32;34108;-62
2023/07/25 07:21:07;;;;;;;9.63;3.83;;;;;;;28.05;59.79;99091.12;5537142;32;34252;-62
2023/07/25 07:24:10;;;;;;;11.05;4.03;;;;;;;28.17;58.02;99082.41;5550589;32;34611;-62
2023/07/25 07:27:13;;;;;;;20.55;3.90;;;;;;;28.51;57.02;99096.94;5550428;32;34176;-62
2023/07/25 07:30:17;;;;;;;7.12;3.20;;;;;;;28.63;56.59;99081.88;5549353;32;32740;-62
2023/07/25 07:33:20;;;;;;;9.02;3.40;;;;;;;28.89;53.49;99086.31;5550004;32;33959;-62
2023/07/25 07:36:25;;;;;;;8.18;3.12;;;;;;;28.84;54.37;99077.47;5549306;32;34817;-62
2023/07/25 07:39:28;;;;;;;9.02;3.37;;;;;;;29.86;52.47;99066.78;5550010;32;34179;-62
2023/07/25 07:42:31;;;;;;;6.60;3.45;;;;;;;30.00;48.74;99072.88;5549896;32;34186;-62
2023/07/25 07:45:34;;;;;;;9.48;3.60;;;;;;;29.23;50.99;99065.59;5550152;32;34748;-62
2023/07/25 07:51:34;;;;;;;6.28;3.33;;;;;;;30.52;51.68;99066.06;5616725;31;213079;-61
2023/07/25 07:54:37;;;;;;;7.22;3.60;;;;;;;30.52;51.68;99066.06;5604072;31;33865;-61
2023/07/25 07:57:45;;;;;;;10.93;3.03;;;;;;;29.58;49.58;99080.84;5602857;31;34347;-61
2023/07/25 08:00:48;;;;;;;6.87;3.37;;;;;;;29.47;52.52;99076.84;5603727;31;33734;-61
2023/07/25 08:03:51;;;;;;;13.13;3.60;;;;;;;29.06;53.76;99060.12;5603553;31;33677;-61
2023/07/25 08:06:54;;;;;;;10.07;3.45;;;;;;;28.62;56.12;99059.25;5604176;31;34379;-61
2023/07/25 08:09:57;;;;;;;7.47;3.60;;;;;;;27.78;61.70;99070.31;5602816;31;33663;-61
2023/07/25 08:13:00;;;;;;;10.45;4.15;;;;;;;27.44;66.98;99067.34;5604138;31;33825;-61
2023/07/25 08:16:04;;;;;;;11.07;4.15;;;;;;;27.22;68.55;99066.22;5603565;31;33735;-61
2023/07/25 08:19:07;;;;;;;14.95;4.70;;;;;;;26.64;79.49;99059.91;5603725;31;34520;-60
2023/07/25 08:22:10;;;;;;;13.85;4.30;;;;;;;26.48;85.95;99064.06;5603563;31;33906;-60
2023/07/25 08:25:13;;;;;;;13.93;3.83;;;;;;;26.17;86.14;99053.78;5604075;31;33800;-61
2023/07/25 08:28:19;;;;;;;11.35;4.37;;;;;;;25.93;90.10;99050.44;5603718;31;33303;-61
2023/07/25 08:31:22;;;;;;;7.43;3.78;;;;;;;25.96;91.97;99045.19;5602760;31;33728;-61
2023/07/25 08:34:25;;;;;;;9.48;3.70;;;;;;;25.87;96.35;99038.03;5603454;31;33738;-61
2023/07/25 08:37:28;;;;;;;9.88;3.92;;;;;;;25.71;99.23;99023.13;5603404;31;33548;-61
2023/07/25 08:40:31;;;;;;;15.63;3.90;;;;;;;25.61;97.02;99034.19;5603142;31;33816;-61
2023/07/25 08:43:38;;;;;;;15.07;4.10;;;;;;;25.52;100.00;99029.41;5603377;31;34672;-61
2023/07/25 08:46:44;;;;;;;17.62;4.60;;;;;;;25.36;100.00;99029.97;5602912;31;32241;-61
2023/07/25 08:49:53;;;;;;;15.88;4.28;;;;;;;24.89;100.00;99039.91;5603282;31;33784;-61
2023/07/25 08:53:00;;;;;;;16.92;4.35;;;;;;;24.23;100.00;99046.22;5603091;31;33710;-62
2023/07/25 08:56:04;;;;;;;14.50;4.10;;;;;;;23.95;100.00;99044.34;5603534;31;33787;-62
2023/07/25 08:59:07;;;;;;;11.77;4.00;;;;;;;23.73;100.00;99055.66;5602862;31;33651;-62
2023/07/25 09:02:10;;;;;;;15.40;5.10;;;;;;;23.68;100.00;99058.41;5593824;31;33666;-61
2023/07/25 09:05:15;;;;;;;12.98;4.47;;;;;;;23.45;100.00;99090.81;5589582;31;33665;-62
2023/07/25 09:08:18;;;;;;;15.80;5.20;;;;;;;22.89;100.00;99102.81;5590290;31;33720;-63
2023/07/25 09:11:21;;;;;;;13.20;4.97;;;;;;;22.27;100.00;99097.91;5590181;31;32596;-62
2023/07/25 09:14:24;;;;;;;14.73;4.87;;;;;;;21.97;100.00;99127.72;5590293;31;33748;-62
2023/07/25 09:17:27;;;;;;;11.52;4.80;;;;;;;21.77;100.00;99182.50;5590097;31;34298;-62
2023/07/25 09:20:30;;;;;;;13.27;4.90;;;;;;;21.64;100.00;99256.69;5590107;31;33738;-61
2023/07/25 09:23:34;;;;;;;14.23;5.07;;;;;;;21.68;100.00;99371.19;5589243;31;33686;-64
2023/07/25 09:26:39;;;;;;;16.83;5.40;;;;;;;21.50;100.00;99404.00;5589413;31;33636;-68
2023/07/25 09:29:43;;;;;;;12.30;4.90;;;;;;;21.28;100.00;99367.47;5589324;31;33703;-69
2023/07/25 09:32:47;;;;;;;16.25;5.60;;;;;;;20.97;100.00;99356.47;5589382;31;34698;-69
2023/07/25 09:35:50;;;;;;;11.90;5.32;;;;;;;20.69;100.00;99354.13;5590242;31;32277;-66
2023/07/25 09:38:55;;;;;;;14.00;6.40;;;;;;;20.48;100.00;99339.69;5590061;31;33646;-69
2023/07/25 09:42:00;;;;;;;14.52;5.53;;;;;;;20.25;100.00;99354.28;5590082;31;34418;-67
2023/07/25 09:45:08;;;;;;;12.43;5.40;;;;;;;20.21;100.00;99353.16;5589239;31;34567;-68
2023/07/25 09:48:11;;;;;;;12.55;5.47;;;;;;;20.05;100.00;99339.78;5590071;31;33652;-65
2023/07/25 09:51:14;;;;;;;11.75;5.30;;;;;;;19.95;100.00;99333.25;5589681;31;34773;-66
2023/07/25 09:54:17;;;;;;;12.00;5.80;;;;;;;19.80;100.00;99308.88;5589265;31;33713;-66
2023/07/25 09:57:20;;;;;;;11.18;5.70;;;;;;;19.69;100.00;99291.00;5589262;31;33519;-66
2023/07/25 10:00:23;;;;;;;10.38;6.03;;;;;;;19.71;100.00;99266.50;5589890;31;33666;-65
2023/07/25 10:03:29;;;;;;;11.15;6.22;;;;;;;19.79;100.00;99242.69;5589201;31;35221;-65
2023/07/25 10:06:35;;;;;;;11.25;6.28;;;;;;;19.71;100.00;99220.78;5589137;31;33750;-65
2023/07/25 10:09:39;;;;;;;11.88;6.30;;;;;;;19.79;100.00;99220.34;5589923;31;33711;-65
2023/07/25 10:12:41;;;;;;;10.75;6.22;;;;;;;19.67;100.00;99219.66;5588087;31;33741;-66
2023/07/25 10:15:45;;;;;;;9.88;5.87;;;;;;;19.60;100.00;99229.84;5589806;31;33698;-66
2023/07/25 10:18:57;;;;;;;10.00;6.25;;;;;;;19.45;100.00;99234.00;5589799;31;34511;-67
2023/07/25 10:22:03;;;;;;;8.07;5.78;;;;;;;19.40;100.00;99258.12;5589020;31;33774;-71
2023/07/25 10:25:27;;;;;;;11.98;6.05;;;;;;;19.63;100.00;99275.88;5588823;31;33722;-70
2023/07/25 10:28:30;;;;;;;10.93;6.28;;;;;;;19.83;100.00;99261.81;5589068;31;33275;-70
2023/07/25 10:31:33;;;;;;;9.50;5.80;;;;;;;19.98;100.00;99251.19;5589592;31;33730;-71
2023/07/25 10:34:51;;;;;;;9.02;5.70;;;;;;;19.96;100.00;99269.47;5589736;31;33756;-73
2023/07/25 10:37:54;;;;;;;8.60;5.57;;;;;;;19.92;100.00;99297.97;5589517;31;33712;-71
2023/07/25 10:41:01;;;;;;;8.45;5.10;;;;;;;20.12;100.00;99290.06;5589614;31;33650;-75
2023/07/25 10:44:04;;;;;;;6.82;4.28;;;;;;;20.92;100.00;99266.66;5589367;31;33695;-70
2023/07/25 10:47:41;;;;;;;10.18;4.70;;;;;;;21.35;100.00;99238.56;5589803;31;33641;-69
2023/07/25 10:50:44;;;;;;;11.25;5.10;;;;;;;21.51;100.00;99226.72;5589008;31;33796;-69
2023/07/25 10:54:07;;;;;;;9.63;4.60;;;;;;;21.55;100.00;99204.31;5588616;31;33669;-68
2023/07/25 10:57:17;;;;;;;13.35;5.12;;;;;;;21.92;100.00;99195.19;5589132;31;34747;-67
2023/07/25 11:00:34;;;;;;;10.38;5.00;;;;;;;21.49;100.00;99178.44;5588590;31;34688;-67
2023/07/25 11:03:37;;;;;;;9.07;4.32;;;;;;;22.09;100.00;99193.84;5589391;31;33699;-67
2023/07/25 11:06:40;;;;;;;6.00;3.87;;;;;;;23.32;100.00;99203.22;5588269;31;34780;-67
2023/07/25 11:09:44;;;;;;;9.85;4.62;;;;;;;23.57;100.00;99221.25;5589138;31;34684;-67
2023/07/25 11:12:53;;;;;;;10.75;4.60;;;;;;;24.44;100.00;99208.63;5589504;31;34295;-67
2023/07/25 11:15:55;;;;;;;8.02;3.95;;;;;;;26.95;100.00;99186.09;5588426;31;33729;-67
2023/07/25 11:18:59;;;;;;;6.97;4.12;;;;;;;25.44;100.00;99167.78;5588444;31;34850;-66
2023/07/25 11:22:10;;;;;;;7.07;4.07;;;;;;;24.82;100.00;99139.84;5588435;31;33322;-65
2023/07/25 11:25:13;;;;;;;6.95;4.45;;;;;;;24.39;100.00;99127.34;5588609;31;34321;-65
2023/07/25 11:28:16;;;;;;;6.70;4.15;;;;;;;24.53;100.00;99107.38;5588905;31;33851;-65
2023/07/25 11:31:21;;;;;;;7.97;4.07;;;;;;;24.46;100.00;99089.84;5589042;31;34472;-65
2023/07/25 11:34:27;;;;;;;6.37;4.40;;;;;;;24.31;100.00;99098.16;5588775;31;32857;-65
2023/07/25 11:37:31;;;;;;;8.75;4.75;;;;;;;23.78;100.00;99104.34;5588538;31;33755;-65
2023/07/25 11:40:34;;;;;;;9.52;4.60;;;;;;;24.34;100.00;99089.44;5587857;31;33167;-66
2023/07/25 11:43:39;;;;;;;8.77;4.75;;;;;;;25.06;100.00;99080.94;5588626;31;34370;-65
2023/07/25 11:46:44;;;;;;;6.55;4.25;;;;;;;25.60;100.00;99079.56;5588184;31;34097;-65
2023/07/25 11:49:49;;;;;;;7.30;4.12;;;;;;;25.82;100.00;99078.91;5588215;31;33843;-65
2023/07/25 11:53:15;;;;;;;9.27;4.30;;;;;;;24.83;100.00;99053.84;5587677;31;33871;-65
2023/07/25 11:56:18;;;;;;;9.25;4.72;;;;;;;23.86;100.00;99054.19;5588678;31;33338;-64
2023/07/25 11:59:22;;;;;;;8.43;4.80;;;;;;;23.42;100.00;99067.81;5588427;31;33931;-64
2023/07/25 12:02:38;;;;;;;7.37;4.70;;;;;;;23.88;100.00;99064.72;5587440;31;33786;-64
2023/07/25 12:05:41;;;;;;;8.13;4.70;;;;;;;24.98;100.00;99065.28;5588085;31;33009;-64
2023/07/25 12:08:45;;;;;;;7.30;4.60;;;;;;;24.96;100.00;99078.34;5588243;31;33039;-64
2023/07/25 12:11:48;;;;;;;6.53;4.10;;;;;;;26.25;100.00;99084.91;5588163;31;33350;-64
2023/07/25 12:15:01;;;;;;;9.48;4.07;;;;;;;26.63;100.00;99083.56;5587605;31;33681;-64
2023/07/25 12:18:04;;;;;;;5.68;3.90;;;;;;;26.70;100.00;99105.75;5588291;31;32744;-64
2023/07/25 12:21:22;;;;;;;6.55;4.12;;;;;;;25.93;100.00;99102.06;5587946;31;34399;-64
2023/07/25 12:24:39;;;;;;;6.10;4.20;;;;;;;24.83;100.00;99108.09;5588064;31;33349;-63
2023/07/25 12:27:48;;;;;;;6.68;4.45;;;;;;;24.95;100.00;99117.44;5588084;31;32933;-64
2023/07/25 12:30:51;;;;;;;8.80;4.47;;;;;;;24.67;100.00;99102.06;5587183;31;33848;-63
2023/07/25 12:33:54;;;;;;;6.40;4.20;;;;;;;24.38;100.00;99096.72;5587795;31;34400;-63
2023/07/25 12:37:00;;;;;;;6.25;4.60;;;;;;;24.40;100.00;99091.03;5589462;31;33714;-63
2023/07/25 12:40:04;;;;;;;5.80;4.40;;;;;;;24.66;100.00;99095.00;5591055;31;33557;-63
2023/07/25 12:43:07;;;;;;;9.32;4.30;;;;;;;24.90;100.00;99114.78;5590690;31;34300;-63
2023/07/25 12:46:10;;;;;;;11.80;4.70;;;;;;;24.65;100.00;99099.63;5590468;31;33750;-63
2023/07/25 12:49:13;;;;;;;7.07;4.57;;;;;;;24.36;100.00;99082.62;5590292;31;34729;-63
2023/07/25 12:52:18;;;;;;;9.18;4.75;;;;;;;24.36;100.00;99079.13;5590192;31;33639;-64
2023/07/25 12:55:21;;;;;;;7.93;4.62;;;;;;;24.06;100.00;99036.91;5590309;31;33695;-65
2023/07/25 12:58:24;;;;;;;9.60;5.32;;;;;;;23.97;100.00;99001.50;5590359;31;35119;-63
2023/07/25 13:01:27;;;;;;;12.15;5.82;;;;;;;23.36;100.00;98979.63;5589718;31;34251;-63
2023/07/25 13:04:31;;;;;;;7.93;5.28;;;;;;;23.40;100.00;98986.91;5589732;31;33808;-63
2023/07/25 13:07:35;;;;;;;11.23;5.37;;;;;;;23.35;100.00;98981.53;5590504;31;34421;-63
2023/07/25 13:10:39;;;;;;;9.68;5.45;;;;;;;23.39;100.00;98957.41;5590262;31;34239;-63
2023/07/25 13:13:42;;;;;;;10.32;5.07;;;;;;;24.55;100.00;98955.22;5589626;31;33715;-64
2023/07/25 13:16:45;;;;;;;8.32;5.20;;;;;;;25.87;100.00;98956.53;5589586;31;33864;-63
2023/07/25 13:19:48;;;;;;;9.25;5.03;;;;;;;26.50;100.00;98977.53;5589416;31;34159;-64
2023/07/25 13:22:52;;;;;;;10.43;4.75;;;;;;;26.80;100.00;98983.09;5589217;31;34506;-63
2023/07/25 13:25:55;;;;;;;8.13;4.72;;;;;;;27.33;100.00;98998.69;5590220;31;33789;-64
2023/07/25 13:28:58;;;;;;;8.55;4.72;;;;;;;27.11;100.00;99010.37;5589583;31;33714;-63
2023/07/25 13:32:01;;;;;;;7.20;4.22;;;;;;;26.34;100.00;98998.81;5590090;31;33834;-63
2023/07/25 13:35:04;;;;;;;13.10;4.82;;;;;;;25.93;100.00;99025.97;5590221;31;33931;-63
2023/07/25 13:38:07;;;;;;;8.65;4.28;;;;;;;25.80;100.00;99034.94;5590075;31;34773;-64
2023/07/25 13:41:10;;;;;;;8.52;4.50;;;;;;;26.12;100.00;99059.31;5589467;31;33699;-64
2023/07/25 13:44:13;;;;;;;7.12;4.00;;;;;;;25.82;100.00;99062.59;5589982;31;33841;-63
2023/07/25 13:47:16;;;;;;;10.00;4.30;;;;;;;25.84;100.00;99065.84;5589897;31;34446;-64
2023/07/25 13:50:22;;;;;;;8.18;3.85;;;;;;;25.65;100.00;99073.25;5589694;31;34288;-62
2023/07/25 13:53:26;;;;;;;7.80;3.87;;;;;;;25.23;100.00;99060.56;5589412;31;34126;-63
2023/07/25 13:56:29;;;;;;;11.73;3.97;;;;;;;25.12;100.00;99082.44;5589495;31;33720;-63
2023/07/25 13:59:32;;;;;;;7.62;3.67;;;;;;;24.75;100.00;99087.84;5588978;31;33889;-67
2023/07/25 14:02:37;;;;;;;7.03;3.47;;;;;;;24.92;100.00;99073.81;5590109;31;33106;-63
2023/07/25 14:05:40;;;;;;;12.65;3.87;;;;;;;26.40;100.00;99068.28;5590082;31;35165;-63
2023/07/25 14:08:44;;;;;;;6.40;3.53;;;;;;;26.53;100.00;99081.06;5589175;31;33686;-64
2023/07/25 14:11:47;;;;;;;6.32;3.12;;;;;;;25.10;100.00;99065.66;5590015;31;34436;-64
2023/07/25 14:14:50;;;;;;;5.15;2.78;;;;;;;29.05;86.27;99061.28;5588893;31;34754;-65
2023/07/25 14:17:54;;;;;;;5.32;3.05;;;;;;;29.32;70.93;99058.22;5589216;31;33444;-65